sensor_id;sensor_type;location;lat;lon;timestamp;noise_LAeq;noise_LA_min;noise_LA_max;noise_LA01;noise_LA95
67900;Laerm;54700;51.796;10.956;2023-06-10T00:00:43;32.49;27.79;45.46;;
67900;Laerm;54700;51.796;10.956;2023-06-10T00:03:10;31.14;28.10;40.44;;
67900;Laerm;54700;51.796;10.956;2023-06-10T00:05:40;56.47;27.82;72.98;;
67900;Laerm;54700;51.796;10.956;2023-06-10T00:08:07;35.19;27.41;54.20;;
67900;Laerm;54700;51.796;10.956;2023-06-10T00:10:34;32.10;28.16;48.27;;
67900;Laerm;54700;51.796;10.956;2023-06-10T00:13:04;29.85;27.67;39.29;;
67900;Laerm;54700;51.796;10.956;2023-06-10T00:15:33;32.03;27.77;42.08;;
67900;Laerm;54700;51.796;10.956;2023-06-10T00:18:00;49.04;28.05;65.04;;
67900;Laerm;54700;51.796;10.956;2023-06-10T00:20:27;32.34;28.02;44.20;;
67900;Laerm;54700;51.796;10.956;2023-06-10T00:22:55;53.32;28.00;69.51;;
67900;Laerm;54700;51.796;10.956;2023-06-10T00:25:22;49.73;29.26;66.73;;
67900;Laerm;54700;51.796;10.956;2023-06-10T00:27:49;33.99;29.66;40.50;;
67900;Laerm;54700;51.796;10.956;2023-06-10T00:30:17;35.65;30.72;45.28;;
67900;Laerm;54700;51.796;10.956;2023-06-10T00:32:44;49.15;31.40;63.16;;
67900;Laerm;54700;51.796;10.956;2023-06-10T00:35:11;51.33;27.66;65.67;;
67900;Laerm;54700;51.796;10.956;2023-06-10T00:37:38;30.28;27.43;38.30;;
67900;Laerm;54700;51.796;10.956;2023-06-10T00:40:06;29.00;27.32;38.24;;
67900;Laerm;54700;51.796;10.956;2023-06-10T00:42:34;30.19;27.66;42.40;;
67900;Laerm;54700;51.796;10.956;2023-06-10T00:45:01;49.82;27.75;64.81;;
67900;Laerm;54700;51.796;10.956;2023-06-10T00:47:30;31.24;28.24;49.71;;
67900;Laerm;54700;51.796;10.956;2023-06-10T00:49:57;31.24;27.79;46.92;;
67900;Laerm;54700;51.796;10.956;2023-06-10T00:52:27;30.50;27.88;40.41;;
67900;Laerm;54700;51.796;10.956;2023-06-10T00:54:55;32.14;27.90;46.53;;
67900;Laerm;54700;51.796;10.956;2023-06-10T00:57:22;51.05;28.52;68.14;;
67900;Laerm;54700;51.796;10.956;2023-06-10T00:59:49;52.45;28.24;69.79;;
67900;Laerm;54700;51.796;10.956;2023-06-10T01:02:19;52.42;28.13;67.99;;
67900;Laerm;54700;51.796;10.956;2023-06-10T01:04:47;31.52;27.49;45.10;;
67900;Laerm;54700;51.796;10.956;2023-06-10T01:07:23;29.64;26.98;38.61;;
67900;Laerm;54700;51.796;10.956;2023-06-10T01:09:59;33.33;27.71;48.08;;
67900;Laerm;54700;51.796;10.956;2023-06-10T01:12:33;48.40;26.94;65.58;;
67900;Laerm;54700;51.796;10.956;2023-06-10T01:15:01;29.32;27.19;49.69;;
67900;Laerm;54700;51.796;10.956;2023-06-10T01:17:30;29.73;27.54;39.36;;
67900;Laerm;54700;51.796;10.956;2023-06-10T01:19:58;29.70;27.31;42.97;;
67900;Laerm;54700;51.796;10.956;2023-06-10T01:22:27;46.79;28.05;60.89;;
67900;Laerm;54700;51.796;10.956;2023-06-10T01:24:58;53.89;27.88;72.29;;
67900;Laerm;54700;51.796;10.956;2023-06-10T01:27:30;34.87;27.37;52.00;;
67900;Laerm;54700;51.796;10.956;2023-06-10T01:30:06;49.67;27.68;66.66;;
67900;Laerm;54700;51.796;10.956;2023-06-10T01:32:37;30.41;27.74;39.60;;
67900;Laerm;54700;51.796;10.956;2023-06-10T01:35:08;32.98;27.47;55.00;;
67900;Laerm;54700;51.796;10.956;2023-06-10T01:37:39;39.52;27.74;57.79;;
67900;Laerm;54700;51.796;10.956;2023-06-10T01:40:07;40.17;28.04;58.99;;
67900;Laerm;54700;51.796;10.956;2023-06-10T01:42:34;39.90;27.92;60.06;;
67900;Laerm;54700;51.796;10.956;2023-06-10T01:45:02;48.73;29.95;66.17;;
67900;Laerm;54700;51.796;10.956;2023-06-10T01:47:29;50.66;29.27;67.29;;
67900;Laerm;54700;51.796;10.956;2023-06-10T01:49:56;43.42;29.95;61.46;;
67900;Laerm;54700;51.796;10.956;2023-06-10T01:52:22;42.19;29.66;59.80;;
67900;Laerm;54700;51.796;10.956;2023-06-10T01:54:51;41.81;30.27;54.08;;
67900;Laerm;54700;51.796;10.956;2023-06-10T01:57:18;43.79;30.99;59.80;;
67900;Laerm;54700;51.796;10.956;2023-06-10T01:59:44;51.36;31.86;65.24;;
67900;Laerm;54700;51.796;10.956;2023-06-10T02:02:12;48.09;31.87;61.32;;
67900;Laerm;54700;51.796;10.956;2023-06-10T02:04:39;50.81;33.75;62.90;;
67900;Laerm;54700;51.796;10.956;2023-06-10T02:07:08;47.87;32.67;59.81;;
67900;Laerm;54700;51.796;10.956;2023-06-10T02:09:35;47.88;32.68;60.66;;
67900;Laerm;54700;51.796;10.956;2023-06-10T02:12:05;47.93;33.14;58.87;;
67900;Laerm;54700;51.796;10.956;2023-06-10T02:14:33;48.58;32.84;59.85;;
67900;Laerm;54700;51.796;10.956;2023-06-10T02:17:04;48.10;32.46;59.66;;
67900;Laerm;54700;51.796;10.956;2023-06-10T02:19:31;45.43;33.96;57.49;;
67900;Laerm;54700;51.796;10.956;2023-06-10T02:22:02;48.12;32.61;64.43;;
67900;Laerm;54700;51.796;10.956;2023-06-10T02:24:29;48.40;32.52;63.79;;
67900;Laerm;54700;51.796;10.956;2023-06-10T02:26:56;52.02;34.50;63.94;;
67900;Laerm;54700;51.796;10.956;2023-06-10T02:29:41;55.61;36.06;69.81;;
67900;Laerm;54700;51.796;10.956;2023-06-10T02:32:08;46.49;33.44;58.44;;
67900;Laerm;54700;51.796;10.956;2023-06-10T02:34:35;47.13;33.34;58.42;;
67900;Laerm;54700;51.796;10.956;2023-06-10T02:37:08;45.94;33.21;58.57;;
67900;Laerm;54700;51.796;10.956;2023-06-10T02:39:35;53.79;33.82;70.10;;
67900;Laerm;54700;51.796;10.956;2023-06-10T02:42:02;41.62;32.80;56.72;;
67900;Laerm;54700;51.796;10.956;2023-06-10T02:44:31;55.15;34.42;72.17;;
67900;Laerm;54700;51.796;10.956;2023-06-10T02:47:02;43.99;33.15;56.01;;
67900;Laerm;54700;51.796;10.956;2023-06-10T02:49:29;47.16;31.66;61.42;;
67900;Laerm;54700;51.796;10.956;2023-06-10T02:51:56;55.07;34.00;69.12;;
67900;Laerm;54700;51.796;10.956;2023-06-10T02:54:24;42.25;31.61;62.61;;
67900;Laerm;54700;51.796;10.956;2023-06-10T02:56:51;49.08;31.12;64.23;;
67900;Laerm;54700;51.796;10.956;2023-06-10T02:59:21;45.65;32.43;63.45;;
67900;Laerm;54700;51.796;10.956;2023-06-10T03:01:48;49.45;31.29;65.79;;
67900;Laerm;54700;51.796;10.956;2023-06-10T03:04:16;52.72;31.14;69.38;;
67900;Laerm;54700;51.796;10.956;2023-06-10T03:06:43;57.33;31.42;72.49;;
67900;Laerm;54700;51.796;10.956;2023-06-10T03:09:12;59.33;32.01;75.93;;
67900;Laerm;54700;51.796;10.956;2023-06-10T03:11:39;54.16;30.76;67.87;;
67900;Laerm;54700;51.796;10.956;2023-06-10T03:14:06;55.48;32.22;74.99;;
67900;Laerm;54700;51.796;10.956;2023-06-10T03:16:33;42.33;30.73;59.36;;
67900;Laerm;54700;51.796;10.956;2023-06-10T03:19:00;49.31;30.12;65.05;;
67900;Laerm;54700;51.796;10.956;2023-06-10T03:21:28;55.73;32.56;69.34;;
67900;Laerm;54700;51.796;10.956;2023-06-10T03:23:55;55.33;31.22;69.48;;
67900;Laerm;54700;51.796;10.956;2023-06-10T03:26:22;53.52;30.65;67.22;;
67900;Laerm;54700;51.796;10.956;2023-06-10T03:28:49;55.06;32.05;68.81;;
67900;Laerm;54700;51.796;10.956;2023-06-10T03:31:16;39.26;30.79;48.18;;
67900;Laerm;54700;51.796;10.956;2023-06-10T03:33:43;50.16;30.72;66.78;;
67900;Laerm;54700;51.796;10.956;2023-06-10T03:36:10;41.52;30.36;57.58;;
67900;Laerm;54700;51.796;10.956;2023-06-10T03:38:38;54.19;29.98;70.18;;
67900;Laerm;54700;51.796;10.956;2023-06-10T03:41:05;53.88;31.69;67.10;;
67900;Laerm;54700;51.796;10.956;2023-06-10T03:43:32;53.33;30.70;68.39;;
67900;Laerm;54700;51.796;10.956;2023-06-10T03:45:59;48.69;29.00;64.25;;
67900;Laerm;54700;51.796;10.956;2023-06-10T03:48:26;54.81;28.83;69.18;;
67900;Laerm;54700;51.796;10.956;2023-06-10T03:50:53;55.13;30.08;67.98;;
67900;Laerm;54700;51.796;10.956;2023-06-10T03:53:20;58.76;30.93;76.08;;
67900;Laerm;54700;51.796;10.956;2023-06-10T03:55:49;38.18;29.71;50.99;;
67900;Laerm;54700;51.796;10.956;2023-06-10T03:58:16;56.45;29.14;73.17;;
67900;Laerm;54700;51.796;10.956;2023-06-10T04:00:43;50.91;29.52;66.02;;
67900;Laerm;54700;51.796;10.956;2023-06-10T04:03:11;50.53;30.58;65.94;;
67900;Laerm;54700;51.796;10.956;2023-06-10T04:05:40;58.73;31.24;73.22;;
67900;Laerm;54700;51.796;10.956;2023-06-10T04:08:08;56.14;30.44;68.37;;
67900;Laerm;54700;51.796;10.956;2023-06-10T04:10:35;40.04;30.08;54.52;;
67900;Laerm;54700;51.796;10.956;2023-06-10T04:13:03;59.71;30.97;71.95;;
67900;Laerm;54700;51.796;10.956;2023-06-10T04:15:30;54.87;29.85;71.40;;
67900;Laerm;54700;51.796;10.956;2023-06-10T04:17:58;52.95;29.68;68.42;;
67900;Laerm;54700;51.796;10.956;2023-06-10T04:20:26;55.27;29.37;72.33;;
67900;Laerm;54700;51.796;10.956;2023-06-10T04:22:53;53.20;29.56;66.97;;
67900;Laerm;54700;51.796;10.956;2023-06-10T04:25:20;55.97;29.74;68.33;;
67900;Laerm;54700;51.796;10.956;2023-06-10T04:27:47;55.21;29.83;67.77;;
67900;Laerm;54700;51.796;10.956;2023-06-10T04:30:16;55.42;29.54;69.66;;
67900;Laerm;54700;51.796;10.956;2023-06-10T04:32:43;55.51;29.46;69.32;;
67900;Laerm;54700;51.796;10.956;2023-06-10T04:35:11;50.14;29.56;67.03;;
67900;Laerm;54700;51.796;10.956;2023-06-10T04:37:38;57.82;31.61;70.55;;
67900;Laerm;54700;51.796;10.956;2023-06-10T04:40:06;50.02;29.54;64.08;;
67900;Laerm;54700;51.796;10.956;2023-06-10T04:42:33;51.69;30.48;67.04;;
67900;Laerm;54700;51.796;10.956;2023-06-10T04:45:00;52.38;29.15;68.40;;
67900;Laerm;54700;51.796;10.956;2023-06-10T04:47:28;56.90;28.87;67.13;;
67900;Laerm;54700;51.796;10.956;2023-06-10T04:49:58;50.76;29.23;68.07;;
67900;Laerm;54700;51.796;10.956;2023-06-10T04:52:25;51.10;29.29;67.17;;
67900;Laerm;54700;51.796;10.956;2023-06-10T04:54:52;55.78;29.22;68.22;;
67900;Laerm;54700;51.796;10.956;2023-06-10T04:57:19;54.28;28.73;69.01;;
67900;Laerm;54700;51.796;10.956;2023-06-10T04:59:45;57.94;31.24;71.13;;
67900;Laerm;54700;51.796;10.956;2023-06-10T05:02:12;61.40;33.85;77.62;;
67900;Laerm;54700;51.796;10.956;2023-06-10T05:04:40;55.01;31.95;68.87;;
67900;Laerm;54700;51.796;10.956;2023-06-10T05:07:07;53.77;30.28;69.12;;
67900;Laerm;54700;51.796;10.956;2023-06-10T05:09:34;58.56;29.97;69.40;;
67900;Laerm;54700;51.796;10.956;2023-06-10T05:12:01;55.50;28.74;70.65;;
67900;Laerm;54700;51.796;10.956;2023-06-10T05:14:28;51.69;29.42;69.02;;
67900;Laerm;54700;51.796;10.956;2023-06-10T05:16:56;57.39;30.84;71.69;;
67900;Laerm;54700;51.796;10.956;2023-06-10T05:19:23;56.27;32.21;68.44;;
67900;Laerm;54700;51.796;10.956;2023-06-10T05:21:51;55.07;32.24;76.32;;
67900;Laerm;54700;51.796;10.956;2023-06-10T05:24:17;59.83;32.07;70.43;;
67900;Laerm;54700;51.796;10.956;2023-06-10T05:26:45;58.66;32.01;70.45;;
67900;Laerm;54700;51.796;10.956;2023-06-10T05:29:12;57.20;29.82;70.49;;
67900;Laerm;54700;51.796;10.956;2023-06-10T05:31:40;59.61;30.72;70.64;;
67900;Laerm;54700;51.796;10.956;2023-06-10T05:34:07;57.90;32.10;69.90;;
67900;Laerm;54700;51.796;10.956;2023-06-10T05:36:34;59.05;32.21;76.42;;
67900;Laerm;54700;51.796;10.956;2023-06-10T05:39:02;55.02;29.56;69.07;;
67900;Laerm;54700;51.796;10.956;2023-06-10T05:41:29;62.99;35.80;75.07;;
67900;Laerm;54700;51.796;10.956;2023-06-10T05:43:56;62.39;37.42;75.82;;
67900;Laerm;54700;51.796;10.956;2023-06-10T05:46:23;60.36;33.22;74.29;;
67900;Laerm;54700;51.796;10.956;2023-06-10T05:48:50;60.53;41.01;74.95;;
67900;Laerm;54700;51.796;10.956;2023-06-10T05:53:53;61.82;37.03;76.66;;
67900;Laerm;54700;51.796;10.956;2023-06-10T05:56:30;60.39;31.17;77.78;;
67900;Laerm;54700;51.796;10.956;2023-06-10T05:59:02;59.28;30.64;76.90;;
67900;Laerm;54700;51.796;10.956;2023-06-10T06:01:29;59.95;35.19;75.01;;
67900;Laerm;54700;51.796;10.956;2023-06-10T06:04:05;59.00;32.66;68.28;;
67900;Laerm;54700;51.796;10.956;2023-06-10T06:06:38;58.06;31.08;69.56;;
67900;Laerm;54700;51.796;10.956;2023-06-10T06:09:06;58.29;35.01;67.78;;
67900;Laerm;54700;51.796;10.956;2023-06-10T06:11:35;59.90;30.40;70.47;;
67900;Laerm;54700;51.796;10.956;2023-06-10T06:14:02;60.68;31.03;70.67;;
67900;Laerm;54700;51.796;10.956;2023-06-10T06:16:29;56.49;31.21;68.30;;
67900;Laerm;54700;51.796;10.956;2023-06-10T06:18:56;56.58;32.94;68.78;;
67900;Laerm;54700;51.796;10.956;2023-06-10T06:21:23;60.65;30.49;70.34;;
67900;Laerm;54700;51.796;10.956;2023-06-10T06:23:50;61.58;40.94;70.90;;
67900;Laerm;54700;51.796;10.956;2023-06-10T06:26:17;63.03;40.56;71.39;;
67900;Laerm;54700;51.796;10.956;2023-06-10T06:28:45;61.39;36.59;72.69;;
67900;Laerm;54700;51.796;10.956;2023-06-10T06:31:12;62.38;33.65;72.60;;
67900;Laerm;54700;51.796;10.956;2023-06-10T06:33:39;62.83;40.41;72.45;;
67900;Laerm;54700;51.796;10.956;2023-06-10T06:36:06;58.95;36.92;69.58;;
67900;Laerm;54700;51.796;10.956;2023-06-10T06:38:33;62.11;42.62;75.46;;
67900;Laerm;54700;51.796;10.956;2023-06-10T06:41:00;62.52;34.43;72.35;;
67900;Laerm;54700;51.796;10.956;2023-06-10T06:43:29;61.72;38.73;76.16;;
67900;Laerm;54700;51.796;10.956;2023-06-10T06:45:58;63.18;37.77;78.33;;
67900;Laerm;54700;51.796;10.956;2023-06-10T06:48:24;61.04;37.65;70.58;;
67900;Laerm;54700;51.796;10.956;2023-06-10T06:50:51;60.44;33.06;71.68;;
67900;Laerm;54700;51.796;10.956;2023-06-10T06:53:18;62.00;33.67;75.15;;
67900;Laerm;54700;51.796;10.956;2023-06-10T06:55:45;60.35;33.45;70.89;;
67900;Laerm;54700;51.796;10.956;2023-06-10T06:58:12;61.23;42.71;77.30;;
67900;Laerm;54700;51.796;10.956;2023-06-10T07:00:38;62.84;42.11;75.67;;
67900;Laerm;54700;51.796;10.956;2023-06-10T07:03:07;60.89;34.03;70.38;;
67900;Laerm;54700;51.796;10.956;2023-06-10T07:05:34;62.40;42.58;75.53;;
67900;Laerm;54700;51.796;10.956;2023-06-10T07:08:01;61.55;32.68;75.64;;
67900;Laerm;54700;51.796;10.956;2023-06-10T07:10:28;60.35;36.51;74.89;;
67900;Laerm;54700;51.796;10.956;2023-06-10T07:12:55;60.21;35.75;76.79;;
67900;Laerm;54700;51.796;10.956;2023-06-10T07:15:22;61.36;35.95;73.31;;
67900;Laerm;54700;51.796;10.956;2023-06-10T07:17:49;61.21;38.08;77.31;;
67900;Laerm;54700;51.796;10.956;2023-06-10T07:20:18;62.41;39.29;70.98;;
67900;Laerm;54700;51.796;10.956;2023-06-10T07:22:44;62.56;37.57;73.96;;
67900;Laerm;54700;51.796;10.956;2023-06-10T07:25:11;61.50;39.78;75.23;;
67900;Laerm;54700;51.796;10.956;2023-06-10T07:27:40;63.33;50.03;75.66;;
67900;Laerm;54700;51.796;10.956;2023-06-10T07:30:08;63.45;41.52;69.79;;
67900;Laerm;54700;51.796;10.956;2023-06-10T07:32:36;62.82;37.30;73.55;;
67900;Laerm;54700;51.796;10.956;2023-06-10T07:35:08;61.87;45.15;75.39;;
67900;Laerm;54700;51.796;10.956;2023-06-10T07:37:36;61.84;33.99;75.65;;
67900;Laerm;54700;51.796;10.956;2023-06-10T07:40:04;64.39;44.35;76.68;;
67900;Laerm;54700;51.796;10.956;2023-06-10T07:42:32;64.77;41.13;81.33;;
67900;Laerm;54700;51.796;10.956;2023-06-10T07:44:59;61.47;38.60;80.77;;
67900;Laerm;54700;51.796;10.956;2023-06-10T07:47:26;62.97;39.82;79.22;;
67900;Laerm;54700;51.796;10.956;2023-06-10T07:49:53;62.87;37.37;81.24;;
67900;Laerm;54700;51.796;10.956;2023-06-10T07:52:20;61.72;42.81;76.20;;
67900;Laerm;54700;51.796;10.956;2023-06-10T07:54:49;62.35;36.97;76.36;;
67900;Laerm;54700;51.796;10.956;2023-06-10T07:57:16;66.47;41.36;84.91;;
67900;Laerm;54700;51.796;10.956;2023-06-10T07:59:43;62.17;37.60;74.37;;
67900;Laerm;54700;51.796;10.956;2023-06-10T08:02:10;62.47;43.57;70.72;;
67900;Laerm;54700;51.796;10.956;2023-06-10T08:04:36;60.69;40.76;68.47;;
67900;Laerm;54700;51.796;10.956;2023-06-10T08:07:06;63.28;44.25;73.58;;
67900;Laerm;54700;51.796;10.956;2023-06-10T08:09:35;60.81;40.21;70.06;;
67900;Laerm;54700;51.796;10.956;2023-06-10T08:12:04;62.84;43.03;70.52;;
67900;Laerm;54700;51.796;10.956;2023-06-10T08:14:32;62.40;40.98;74.99;;
67900;Laerm;54700;51.796;10.956;2023-06-10T08:16:59;65.87;43.12;80.13;;
67900;Laerm;54700;51.796;10.956;2023-06-10T08:19:26;62.15;44.29;70.31;;
67900;Laerm;54700;51.796;10.956;2023-06-10T08:21:53;63.84;46.52;72.25;;
67900;Laerm;54700;51.796;10.956;2023-06-10T08:24:20;63.36;40.64;73.04;;
67900;Laerm;54700;51.796;10.956;2023-06-10T08:26:47;63.37;42.24;73.88;;
67900;Laerm;54700;51.796;10.956;2023-06-10T08:29:15;63.70;42.68;70.23;;
67900;Laerm;54700;51.796;10.956;2023-06-10T08:31:42;64.31;42.23;76.25;;
67900;Laerm;54700;51.796;10.956;2023-06-10T08:34:10;63.80;41.67;70.19;;
67900;Laerm;54700;51.796;10.956;2023-06-10T08:36:37;63.93;42.51;72.84;;
67900;Laerm;54700;51.796;10.956;2023-06-10T08:39:04;60.31;37.27;71.22;;
67900;Laerm;54700;51.796;10.956;2023-06-10T08:41:43;64.25;43.37;73.24;;
67900;Laerm;54700;51.796;10.956;2023-06-10T08:44:22;62.97;46.10;77.57;;
67900;Laerm;54700;51.796;10.956;2023-06-10T08:46:53;60.98;35.95;69.84;;
67900;Laerm;54700;51.796;10.956;2023-06-10T08:49:22;62.06;41.88;69.89;;
67900;Laerm;54700;51.796;10.956;2023-06-10T08:51:50;59.88;43.39;68.61;;
67900;Laerm;54700;51.796;10.956;2023-06-10T08:54:20;64.27;41.76;79.20;;
67900;Laerm;54700;51.796;10.956;2023-06-10T08:56:49;63.19;39.74;70.59;;
67900;Laerm;54700;51.796;10.956;2023-06-10T08:59:19;61.22;38.44;74.30;;
67900;Laerm;54700;51.796;10.956;2023-06-10T09:01:47;63.87;50.69;81.57;;
67900;Laerm;54700;51.796;10.956;2023-06-10T09:04:14;62.61;44.31;72.09;;
67900;Laerm;54700;51.796;10.956;2023-06-10T09:06:47;62.30;40.69;71.68;;
67900;Laerm;54700;51.796;10.956;2023-06-10T09:09:16;63.93;39.29;74.39;;
67900;Laerm;54700;51.796;10.956;2023-06-10T09:11:45;62.66;41.19;70.47;;
67900;Laerm;54700;51.796;10.956;2023-06-10T09:14:12;60.70;43.88;67.49;;
67900;Laerm;54700;51.796;10.956;2023-06-10T09:16:41;61.41;41.07;69.60;;
67900;Laerm;54700;51.796;10.956;2023-06-10T09:19:09;61.75;38.69;70.95;;
67900;Laerm;54700;51.796;10.956;2023-06-10T09:21:37;62.93;41.11;76.10;;
67900;Laerm;54700;51.796;10.956;2023-06-10T09:24:05;63.90;43.66;75.20;;
67900;Laerm;54700;51.796;10.956;2023-06-10T09:26:32;62.96;45.40;76.03;;
67900;Laerm;54700;51.796;10.956;2023-06-10T09:29:03;62.38;35.61;73.05;;
67900;Laerm;54700;51.796;10.956;2023-06-10T09:31:39;59.71;37.77;69.31;;
67900;Laerm;54700;51.796;10.956;2023-06-10T09:34:12;62.51;42.10;73.76;;
67900;Laerm;54700;51.796;10.956;2023-06-10T09:36:40;63.88;35.95;75.38;;
67900;Laerm;54700;51.796;10.956;2023-06-10T09:39:15;63.41;38.74;73.47;;
67900;Laerm;54700;51.796;10.956;2023-06-10T09:41:44;62.11;41.29;75.26;;
67900;Laerm;54700;51.796;10.956;2023-06-10T09:44:12;61.43;35.87;68.70;;
67900;Laerm;54700;51.796;10.956;2023-06-10T09:46:41;60.46;39.96;69.94;;
67900;Laerm;54700;51.796;10.956;2023-06-10T09:49:08;60.57;37.43;69.45;;
67900;Laerm;54700;51.796;10.956;2023-06-10T09:51:37;61.09;33.05;77.19;;
67900;Laerm;54700;51.796;10.956;2023-06-10T09:54:04;61.88;42.12;69.47;;
67900;Laerm;54700;51.796;10.956;2023-06-10T09:56:34;63.94;41.81;69.93;;
67900;Laerm;54700;51.796;10.956;2023-06-10T09:59:03;62.65;40.76;69.32;;
67900;Laerm;54700;51.796;10.956;2023-06-10T10:01:31;63.11;37.43;69.97;;
67900;Laerm;54700;51.796;10.956;2023-06-10T10:03:59;58.48;39.01;69.17;;
67900;Laerm;54700;51.796;10.956;2023-06-10T10:06:27;62.00;36.27;71.50;;
67900;Laerm;54700;51.796;10.956;2023-06-10T10:08:58;62.48;42.55;71.99;;
67900;Laerm;54700;51.796;10.956;2023-06-10T10:11:25;61.91;32.28;78.35;;
67900;Laerm;54700;51.796;10.956;2023-06-10T10:13:53;60.70;35.56;73.09;;
67900;Laerm;54700;51.796;10.956;2023-06-10T10:16:23;60.22;32.65;72.82;;
67900;Laerm;54700;51.796;10.956;2023-06-10T10:18:55;61.72;35.40;70.98;;
67900;Laerm;54700;51.796;10.956;2023-06-10T10:21:27;61.46;35.41;70.91;;
67900;Laerm;54700;51.796;10.956;2023-06-10T10:24:09;59.47;33.24;72.82;;
67900;Laerm;54700;51.796;10.956;2023-06-10T10:26:38;60.36;31.46;71.93;;
67900;Laerm;54700;51.796;10.956;2023-06-10T10:29:10;62.51;43.43;72.21;;
67900;Laerm;54700;51.796;10.956;2023-06-10T10:31:39;60.79;38.11;72.55;;
67900;Laerm;54700;51.796;10.956;2023-06-10T10:34:09;61.92;37.38;73.42;;
67900;Laerm;54700;51.796;10.956;2023-06-10T10:36:38;62.16;37.88;71.94;;
67900;Laerm;54700;51.796;10.956;2023-06-10T10:39:07;62.67;38.51;82.22;;
67900;Laerm;54700;51.796;10.956;2023-06-10T10:41:36;62.00;35.74;73.77;;
67900;Laerm;54700;51.796;10.956;2023-06-10T10:44:05;60.90;33.02;72.31;;
67900;Laerm;54700;51.796;10.956;2023-06-10T10:46:51;60.59;33.51;74.41;;
67900;Laerm;54700;51.796;10.956;2023-06-10T10:49:20;60.31;32.10;73.24;;
67900;Laerm;54700;51.796;10.956;2023-06-10T10:52:03;62.71;34.98;74.69;;
67900;Laerm;54700;51.796;10.956;2023-06-10T10:54:34;64.90;35.97;82.59;;
67900;Laerm;54700;51.796;10.956;2023-06-10T10:57:19;62.00;34.75;68.75;;
67900;Laerm;54700;51.796;10.956;2023-06-10T10:59:52;60.10;33.64;70.54;;
67900;Laerm;54700;51.796;10.956;2023-06-10T11:02:33;60.87;33.34;69.05;;
67900;Laerm;54700;51.796;10.956;2023-06-10T11:05:01;64.49;43.15;77.39;;
67900;Laerm;54700;51.796;10.956;2023-06-10T11:07:30;59.47;38.26;68.89;;
67900;Laerm;54700;51.796;10.956;2023-06-10T11:10:00;58.64;31.75;68.97;;
67900;Laerm;54700;51.796;10.956;2023-06-10T11:12:41;60.49;33.17;70.49;;
67900;Laerm;54700;51.796;10.956;2023-06-10T11:15:08;58.84;34.64;68.36;;
67900;Laerm;54700;51.796;10.956;2023-06-10T11:17:35;56.51;31.25;69.00;;
67900;Laerm;54700;51.796;10.956;2023-06-10T11:20:02;62.27;39.72;74.77;;
67900;Laerm;54700;51.796;10.956;2023-06-10T11:22:30;60.40;40.11;69.30;;
67900;Laerm;54700;51.796;10.956;2023-06-10T11:24:59;61.37;32.00;73.68;;
67900;Laerm;54700;51.796;10.956;2023-06-10T11:27:36;63.67;34.60;82.32;;
67900;Laerm;54700;51.796;10.956;2023-06-10T11:30:20;58.52;32.79;68.85;;
67900;Laerm;54700;51.796;10.956;2023-06-10T11:32:51;63.82;42.10;76.59;;
67900;Laerm;54700;51.796;10.956;2023-06-10T11:35:20;60.22;32.95;70.76;;
67900;Laerm;54700;51.796;10.956;2023-06-10T11:37:47;62.10;36.03;75.10;;
67900;Laerm;54700;51.796;10.956;2023-06-10T11:40:17;59.58;33.37;73.11;;
67900;Laerm;54700;51.796;10.956;2023-06-10T11:42:45;59.60;35.46;69.98;;
67900;Laerm;54700;51.796;10.956;2023-06-10T11:45:15;59.96;35.88;71.35;;
67900;Laerm;54700;51.796;10.956;2023-06-10T11:47:56;61.40;41.73;72.27;;
67900;Laerm;54700;51.796;10.956;2023-06-10T11:50:32;60.93;34.49;71.37;;
67900;Laerm;54700;51.796;10.956;2023-06-10T11:53:01;60.39;34.68;70.46;;
67900;Laerm;54700;51.796;10.956;2023-06-10T11:55:42;61.09;33.96;69.54;;
67900;Laerm;54700;51.796;10.956;2023-06-10T11:58:13;61.30;39.46;72.72;;
67900;Laerm;54700;51.796;10.956;2023-06-10T12:00:45;61.14;33.52;71.05;;
67900;Laerm;54700;51.796;10.956;2023-06-10T12:03:12;59.58;32.13;68.92;;
67900;Laerm;54700;51.796;10.956;2023-06-10T12:05:39;59.19;36.95;72.57;;
67900;Laerm;54700;51.796;10.956;2023-06-10T12:08:09;60.02;34.41;69.81;;
67900;Laerm;54700;51.796;10.956;2023-06-10T12:10:42;59.30;33.64;70.47;;
67900;Laerm;54700;51.796;10.956;2023-06-10T12:13:09;59.63;34.85;69.53;;
67900;Laerm;54700;51.796;10.956;2023-06-10T12:15:36;59.92;35.01;70.07;;
67900;Laerm;54700;51.796;10.956;2023-06-10T12:18:03;58.62;32.37;70.62;;
67900;Laerm;54700;51.796;10.956;2023-06-10T12:20:32;59.05;32.10;69.33;;
67900;Laerm;54700;51.796;10.956;2023-06-10T12:23:00;59.22;34.18;70.00;;
67900;Laerm;54700;51.796;10.956;2023-06-10T12:25:28;65.91;37.39;84.48;;
67900;Laerm;54700;51.796;10.956;2023-06-10T12:27:58;62.79;35.32;80.43;;
67900;Laerm;54700;51.796;10.956;2023-06-10T12:30:26;59.98;32.77;71.76;;
67900;Laerm;54700;51.796;10.956;2023-06-10T12:32:54;63.15;35.27;76.51;;
67900;Laerm;54700;51.796;10.956;2023-06-10T12:35:23;59.83;33.42;71.33;;
67900;Laerm;54700;51.796;10.956;2023-06-10T12:37:58;61.19;33.12;70.62;;
67900;Laerm;54700;51.796;10.956;2023-06-10T12:40:27;60.71;33.57;72.79;;
67900;Laerm;54700;51.796;10.956;2023-06-10T12:42:54;60.61;32.33;76.13;;
67900;Laerm;54700;51.796;10.956;2023-06-10T12:45:30;61.32;34.57;70.30;;
67900;Laerm;54700;51.796;10.956;2023-06-10T12:48:07;61.44;37.05;72.06;;
67900;Laerm;54700;51.796;10.956;2023-06-10T12:50:35;64.42;39.28;75.30;;
67900;Laerm;54700;51.796;10.956;2023-06-10T12:53:04;62.48;39.47;76.17;;
67900;Laerm;54700;51.796;10.956;2023-06-10T12:55:32;59.16;37.86;69.21;;
67900;Laerm;54700;51.796;10.956;2023-06-10T12:57:59;61.70;38.16;71.67;;
67900;Laerm;54700;51.796;10.956;2023-06-10T13:00:28;61.67;36.08;72.33;;
67900;Laerm;54700;51.796;10.956;2023-06-10T13:02:56;58.79;32.42;70.91;;
67900;Laerm;54700;51.796;10.956;2023-06-10T13:05:23;61.45;35.17;72.33;;
67900;Laerm;54700;51.796;10.956;2023-06-10T13:07:49;64.80;35.76;78.99;;
67900;Laerm;54700;51.796;10.956;2023-06-10T13:10:17;60.07;38.34;69.99;;
67900;Laerm;54700;51.796;10.956;2023-06-10T13:12:44;61.87;37.44;72.33;;
67900;Laerm;54700;51.796;10.956;2023-06-10T13:15:12;60.60;32.93;73.03;;
67900;Laerm;54700;51.796;10.956;2023-06-10T13:17:41;61.00;33.66;79.08;;
67900;Laerm;54700;51.796;10.956;2023-06-10T13:20:09;60.46;36.92;69.92;;
67900;Laerm;54700;51.796;10.956;2023-06-10T13:22:36;59.13;34.84;69.54;;
67900;Laerm;54700;51.796;10.956;2023-06-10T13:25:03;60.74;38.35;70.25;;
67900;Laerm;54700;51.796;10.956;2023-06-10T13:27:30;66.10;35.51;78.59;;
67900;Laerm;54700;51.796;10.956;2023-06-10T13:29:57;57.80;34.00;69.84;;
67900;Laerm;54700;51.796;10.956;2023-06-10T13:32:24;60.91;35.56;73.09;;
67900;Laerm;54700;51.796;10.956;2023-06-10T13:34:52;60.65;34.27;75.64;;
67900;Laerm;54700;51.796;10.956;2023-06-10T13:37:20;60.42;32.38;73.72;;
67900;Laerm;54700;51.796;10.956;2023-06-10T13:39:47;62.17;33.90;77.81;;
67900;Laerm;54700;51.796;10.956;2023-06-10T13:42:16;55.75;33.17;68.59;;